Time;durP1;ratioP1;P1;durP2;ratioP2;P2;SDS_P1;SDS_P2;PMS_P1;PMS_P2;Temp;Humidity;BMP_temperature;BMP_pressure;BME280_temperature;BME280_humidity;BME280_pressure;Samples;Min_cycle;Max_cycle;Signal;HPM_P1;HPM_P2
2022/03/27 00:02:04;;;;;;;26.58;14.70;;;;;;;7.06;73.02;100697.03;4961793;28;20050;-51
2022/03/27 00:04:29;;;;;;;27.40;14.63;;;;;;;7.25;72.79;100696.50;4965706;28;20031;-53
2022/03/27 00:06:54;;;;;;;28.75;14.38;;;;;;;7.11;72.75;100703.50;4969734;28;20098;-52
2022/03/27 00:09:20;;;;;;;29.98;15.75;;;;;;;7.05;73.27;100698.06;4963560;28;20057;-52
2022/03/27 00:11:45;;;;;;;25.70;14.07;;;;;;;7.07;74.61;100699.53;4955673;28;20055;-54
2022/03/27 00:14:10;;;;;;;27.45;15.13;;;;;;;7.22;75.66;100706.72;4958592;28;20039;-50
2022/03/27 00:16:36;;;;;;;28.40;16.45;;;;;;;6.95;73.49;100701.00;4963039;28;20107;-52
2022/03/27 00:19:02;;;;;;;32.85;17.25;;;;;;;6.80;73.73;100700.97;4970023;28;20388;-51
2022/03/27 00:21:27;;;;;;;25.45;15.07;;;;;;;6.83;74.63;100702.47;4969663;28;20130;-51
2022/03/27 00:23:52;;;;;;;28.58;15.27;;;;;;;6.88;75.37;100708.88;4967361;28;20472;-52
2022/03/27 00:26:18;;;;;;;32.17;15.77;;;;;;;6.76;74.42;100704.19;4965540;28;20039;-52
2022/03/27 00:28:44;;;;;;;29.42;15.48;;;;;;;6.69;75.40;100694.25;4960965;28;20110;-50
2022/03/27 00:31:10;;;;;;;31.05;16.65;;;;;;;6.69;75.28;100694.25;4963737;28;20054;-50
2022/03/27 00:33:36;;;;;;;27.65;15.50;;;;;;;6.70;74.83;100701.25;4969963;28;20026;-50
2022/03/27 00:36:03;;;;;;;37.38;17.58;;;;;;;6.65;75.80;100702.81;4964422;28;20464;-52
2022/03/27 00:38:29;;;;;;;30.48;15.98;;;;;;;6.75;76.12;100689.22;4959754;28;20038;-53
2022/03/27 00:40:54;;;;;;;28.30;15.48;;;;;;;6.59;75.44;100690.19;4969538;28;20039;-50
2022/03/27 00:43:20;;;;;;;30.55;16.05;;;;;;;6.64;75.12;100685.13;4957786;28;20039;-50
2022/03/27 00:45:46;;;;;;;29.63;16.20;;;;;;;6.65;76.36;100697.47;4962420;28;20408;-52
2022/03/27 00:48:13;;;;;;;32.63;15.48;;;;;;;6.58;76.52;100697.34;4965625;28;20117;-53
2022/03/27 00:50:38;;;;;;;31.38;17.48;;;;;;;6.63;76.08;100691.50;4968688;28;20042;-51
2022/03/27 00:53:04;;;;;;;35.63;16.98;;;;;;;6.91;74.99;100686.38;4962206;28;20094;-52
2022/03/27 00:55:29;;;;;;;28.98;16.77;;;;;;;7.12;74.76;100693.66;4961949;28;20134;-52
2022/03/27 00:57:55;;;;;;;28.98;15.05;;;;;;;7.07;74.84;100696.06;4960093;28;20394;-51
2022/03/27 01:00:48;;;;;;;36.15;17.08;;;;;;;6.87;74.38;100695.75;4968306;28;20493;-51
2022/03/27 01:03:21;;;;;;;30.08;16.83;;;;;;;6.53;75.26;100685.59;4950872;28;20500;-52
2022/03/27 01:05:50;;;;;;;28.45;15.45;;;;;;;6.41;76.07;100685.19;4968891;28;20051;-51
2022/03/27 01:09:35;;;;;;;26.02;14.65;;;;;;;6.48;78.91;100686.94;4969163;28;20429;-53
2022/03/27 01:11:08;;;;;;;31.55;16.63;;;;;;;6.36;77.27;100684.91;4964555;28;20465;-52
2022/03/27 01:13:35;;;;;;;30.98;16.25;;;;;;;6.11;77.18;100685.09;4952000;28;20054;-52
2022/03/27 01:16:00;;;;;;;30.15;14.95;;;;;;;6.29;80.98;100679.47;4968539;28;20418;-51
2022/03/27 01:18:26;;;;;;;31.08;16.98;;;;;;;6.09;78.39;100687.13;4948861;28;20050;-51
2022/03/27 01:20:53;;;;;;;30.02;15.73;;;;;;;5.99;78.85;100676.72;4960340;28;20038;-51
2022/03/27 01:23:18;;;;;;;28.63;15.57;;;;;;;5.82;79.46;100686.59;4965079;28;20114;-51
2022/03/27 01:25:44;;;;;;;32.78;18.60;;;;;;;5.55;78.32;100679.09;4957254;28;20043;-53
2022/03/27 01:28:11;;;;;;;38.25;16.48;;;;;;;5.34;79.48;100677.88;4968480;28;20034;-53
2022/03/27 01:30:37;;;;;;;33.05;17.92;;;;;;;5.13;80.28;100665.13;4964056;28;20585;-53
2022/03/27 01:33:05;;;;;;;35.00;17.08;;;;;;;5.37;81.16;100671.38;4963114;28;20069;-53
2022/03/27 01:35:30;;;;;;;37.97;17.60;;;;;;;5.33;80.47;100664.75;4962783;28;20042;-52
2022/03/27 01:37:56;;;;;;;31.52;16.75;;;;;;;5.37;81.39;100671.38;4963758;28;20045;-51
2022/03/27 01:40:21;;;;;;;30.98;17.83;;;;;;;5.41;80.64;100665.50;4958565;28;20050;-50
2022/03/27 01:42:48;;;;;;;32.90;15.65;;;;;;;5.54;80.24;100658.81;4968471;28;20026;-52
2022/03/27 01:45:14;;;;;;;34.40;16.95;;;;;;;5.55;80.81;100663.97;4967912;28;20684;-51
2022/03/27 01:47:39;;;;;;;35.60;16.60;;;;;;;5.59;80.53;100665.28;4964549;28;20062;-51
2022/03/27 01:50:05;;;;;;;29.90;16.25;;;;;;;5.67;80.37;100667.06;4958342;28;20027;-50
2022/03/27 01:52:31;;;;;;;33.38;16.90;;;;;;;5.72;81.12;100664.69;4962115;28;20288;-50
2022/03/27 01:54:57;;;;;;;35.92;17.70;;;;;;;5.66;80.44;100664.56;4968535;28;20034;-53
2022/03/27 01:57:23;;;;;;;32.92;17.30;;;;;;;5.66;80.73;100665.38;4966110;28;20373;-53
2022/03/27 01:59:48;;;;;;;29.27;16.35;;;;;;;5.71;80.89;100660.38;4958702;28;20102;-53
2022/03/27 02:02:13;;;;;;;38.90;17.60;;;;;;;5.72;80.57;100663.88;4966145;28;20481;-51
2022/03/27 02:04:39;;;;;;;37.53;17.63;;;;;;;5.88;80.57;100665.59;4961203;28;20429;-50
2022/03/27 02:07:07;;;;;;;31.75;17.15;;;;;;;5.83;79.98;100664.28;4961530;28;20074;-50
2022/03/27 02:09:32;;;;;;;39.25;18.17;;;;;;;5.90;80.74;100658.28;4966390;28;20022;-51
2022/03/27 02:11:58;;;;;;;36.85;17.45;;;;;;;5.97;80.68;100667.25;4960261;28;20042;-50
2022/03/27 02:14:23;;;;;;;39.67;17.90;;;;;;;5.85;79.75;100656.13;4961846;28;20022;-50
2022/03/27 02:16:49;;;;;;;28.50;16.40;;;;;;;5.93;80.87;100660.56;4958092;28;20043;-50
2022/03/27 02:19:14;;;;;;;35.63;17.52;;;;;;;6.00;80.10;100653.56;4966333;28;20158;-51
2022/03/27 02:21:41;;;;;;;38.10;17.63;;;;;;;5.91;80.39;100659.91;4967794;28;20049;-52
2022/03/27 02:24:08;;;;;;;36.22;16.75;;;;;;;5.91;80.52;100657.25;4964452;28;20545;-50
2022/03/27 02:26:33;;;;;;;34.42;16.80;;;;;;;5.97;80.19;100659.25;4967775;28;20047;-50
2022/03/27 02:28:58;;;;;;;33.10;16.75;;;;;;;5.96;80.60;100660.25;4977305;28;20033;-53
2022/03/27 02:31:24;;;;;;;36.05;18.58;;;;;;;5.68;81.17;100654.59;4963679;28;20043;-51
2022/03/27 02:33:49;;;;;;;35.78;17.95;;;;;;;6.01;80.74;100652.56;4970995;28;20034;-51
2022/03/27 02:36:16;;;;;;;37.45;18.13;;;;;;;6.36;79.17;100652.94;4967885;28;20119;-50
2022/03/27 02:38:42;;;;;;;30.50;16.35;;;;;;;6.20;80.78;100654.75;4966069;28;20529;-51
2022/03/27 02:41:07;;;;;;;34.35;15.93;;;;;;;6.02;81.33;100659.56;4971126;28;20178;-49
2022/03/27 02:43:33;;;;;;;36.47;18.55;;;;;;;5.91;83.28;100659.91;4971672;28;20022;-50
2022/03/27 02:45:59;;;;;;;36.08;18.40;;;;;;;5.89;82.56;100659.25;4962640;28;20047;-51
2022/03/27 02:48:24;;;;;;;36.03;17.60;;;;;;;5.95;84.31;100658.59;4952393;29;20430;-49
2022/03/27 02:50:50;;;;;;;33.53;17.30;;;;;;;5.72;81.46;100667.38;4941145;28;20045;-53
2022/03/27 02:53:15;;;;;;;36.97;18.20;;;;;;;5.46;80.33;100672.16;4967074;28;20390;-53
2022/03/27 02:55:41;;;;;;;40.35;18.35;;;;;;;5.13;80.58;100666.97;4960605;28;20043;-50
2022/03/27 02:58:06;;;;;;;37.13;18.75;;;;;;;4.87;81.05;100662.75;4970435;28;20039;-52
2022/03/27 03:00:32;;;;;;;39.42;18.80;;;;;;;4.56;82.57;100661.81;4970703;28;20043;-50
2022/03/27 03:02:57;;;;;;;36.17;18.65;;;;;;;4.34;83.59;100656.16;4959484;28;20107;-50
2022/03/27 03:05:23;;;;;;;36.70;18.35;;;;;;;4.37;84.91;100658.50;4966834;28;20043;-50
2022/03/27 03:07:49;;;;;;;38.78;19.55;;;;;;;4.48;85.74;100666.13;4965028;28;20122;-50
2022/03/27 03:10:15;;;;;;;43.17;19.60;;;;;;;4.68;85.73;100665.78;4969239;28;20038;-51
2022/03/27 03:12:40;;;;;;;41.22;19.95;;;;;;;4.66;85.70;100657.97;4971736;28;20031;-50
2022/03/27 03:15:06;;;;;;;36.15;19.02;;;;;;;4.61;86.25;100659.47;4968699;28;20034;-51
2022/03/27 03:17:32;;;;;;;45.30;21.55;;;;;;;4.65;86.02;100660.81;4956401;28;20118;-50
2022/03/27 03:19:57;;;;;;;37.60;18.50;;;;;;;4.69;85.81;100660.31;4957060;28;20035;-50
2022/03/27 03:22:23;;;;;;;36.92;19.25;;;;;;;4.35;84.90;100654.38;4960466;28;20054;-51
2022/03/27 03:24:50;;;;;;;39.95;20.42;;;;;;;4.57;86.95;100658.13;4967268;28;20090;-53
2022/03/27 03:27:15;;;;;;;39.08;20.48;;;;;;;4.68;87.14;100652.50;4971006;28;20125;-50
2022/03/27 03:29:41;;;;;;;41.30;20.30;;;;;;;4.68;86.07;100652.50;4970698;28;20031;-50
2022/03/27 03:32:06;;;;;;;46.25;21.17;;;;;;;4.84;85.56;100651.63;4970861;28;20057;-53
2022/03/27 03:34:33;;;;;;;50.03;20.48;;;;;;;5.17;86.27;100649.69;4970525;28;20125;-53
2022/03/27 03:36:59;;;;;;;43.28;20.40;;;;;;;5.07;84.75;100649.06;4970689;28;20054;-53
2022/03/27 03:39:24;;;;;;;43.45;19.15;;;;;;;4.83;85.32;100658.75;4965305;28;20035;-50
2022/03/27 03:41:49;;;;;;;38.03;19.20;;;;;;;4.84;85.81;100662.25;4965764;28;20039;-53
2022/03/27 03:44:15;;;;;;;41.70;20.10;;;;;;;4.66;85.37;100657.13;4964236;28;20591;-52
2022/03/27 03:46:40;;;;;;;43.53;20.13;;;;;;;4.45;85.84;100655.03;4959637;28;20067;-51
2022/03/27 03:49:06;;;;;;;41.28;19.40;;;;;;;4.42;87.42;100656.19;4963557;28;20497;-50
2022/03/27 03:51:35;;;;;;;40.63;20.83;;;;;;;4.60;86.49;100655.16;4956454;28;21021;-49
2022/03/27 03:54:01;;;;;;;81.57;21.77;;;;;;;4.58;87.41;100655.31;4984270;28;20023;-50
2022/03/27 03:56:27;;;;;;;46.45;22.25;;;;;;;4.59;87.37;100651.66;4968986;28;20057;-50
2022/03/27 03:58:52;;;;;;;36.20;19.85;;;;;;;4.57;86.86;100647.50;4967593;28;20035;-50
2022/03/27 04:01:18;;;;;;;43.17;20.20;;;;;;;4.46;86.78;100660.16;4969736;28;20043;-50
2022/03/27 04:03:43;;;;;;;45.25;23.30;;;;;;;4.52;87.67;100654.19;4961289;28;20035;-52
2022/03/27 04:06:08;;;;;;;48.47;22.25;;;;;;;4.42;86.89;100650.03;4958708;28;20406;-52
2022/03/27 04:08:34;;;;;;;46.03;22.65;;;;;;;4.54;88.69;100654.84;4939702;29;20042;-50
2022/03/27 04:10:59;;;;;;;46.83;22.15;;;;;;;4.48;87.60;100644.88;4933677;28;20051;-50
2022/03/27 04:13:25;;;;;;;46.75;22.23;;;;;;;4.40;87.41;100650.22;4933556;29;20028;-51
2022/03/27 04:15:50;;;;;;;40.25;20.00;;;;;;;4.65;91.43;100650.19;4934129;28;20052;-53
2022/03/27 04:18:16;;;;;;;41.90;21.58;;;;;;;4.43;86.92;100647.22;4935711;29;20090;-49
2022/03/27 04:20:41;;;;;;;49.00;23.23;;;;;;;4.45;89.84;100645.22;4937119;28;20502;-52
2022/03/27 04:23:07;;;;;;;45.92;22.73;;;;;;;4.32;87.81;100651.03;4934455;29;20036;-50
2022/03/27 04:25:32;;;;;;;46.42;23.05;;;;;;;4.30;88.19;100649.56;4933804;28;20056;-53
2022/03/27 04:28:03;;;;;;;54.72;24.58;;;;;;;4.20;88.59;100646.25;4933651;29;20478;-49
2022/03/27 04:30:29;;;;;;;45.45;22.63;;;;;;;4.21;89.25;100643.41;4932642;28;20110;-52
2022/03/27 04:32:55;;;;;;;46.88;24.92;;;;;;;4.15;88.29;100645.91;4938720;29;20038;-50
2022/03/27 04:35:20;;;;;;;48.03;24.17;;;;;;;4.11;88.61;100643.56;4933461;28;20052;-51
2022/03/27 04:37:47;;;;;;;52.42;23.85;;;;;;;3.98;88.36;100653.84;4939865;29;20031;-51
2022/03/27 04:40:13;;;;;;;48.35;23.83;;;;;;;3.99;88.92;100655.50;4932205;28;20046;-51
2022/03/27 04:42:39;;;;;;;46.85;22.52;;;;;;;3.91;88.59;100660.81;4933983;28;20032;-49
2022/03/27 04:45:05;;;;;;;49.05;23.08;;;;;;;3.74;88.44;100656.47;4938227;28;20051;-52
2022/03/27 04:47:30;;;;;;;44.05;22.65;;;;;;;3.74;89.88;100656.47;4933506;28;20374;-49
2022/03/27 04:49:55;;;;;;;51.50;24.58;;;;;;;3.72;90.15;100653.13;4938747;28;20034;-53
2022/03/27 04:52:21;;;;;;;49.47;22.35;;;;;;;3.70;90.40;100650.69;4934401;28;20078;-51
2022/03/27 04:54:46;;;;;;;47.22;24.33;;;;;;;3.85;92.08;100654.34;4933248;28;20039;-49
2022/03/27 04:57:12;;;;;;;54.22;22.90;;;;;;;3.79;89.77;100656.81;4939484;28;20387;-50
2022/03/27 04:59:37;;;;;;;46.13;23.88;;;;;;;3.82;90.42;100661.78;4932460;28;20092;-52
2022/03/27 05:02:03;;;;;;;49.83;23.60;;;;;;;3.66;88.55;100654.63;4936181;28;20043;-49
2022/03/27 05:04:28;;;;;;;433.15;51.88;;;;;;;3.61;89.58;100665.72;4933695;29;20082;-50
2022/03/27 05:06:54;;;;;;;93.57;28.70;;;;;;;3.89;90.53;100668.09;4935638;28;20126;-49
2022/03/27 05:09:20;;;;;;;226.95;31.58;;;;;;;3.99;92.05;100670.59;4937339;29;20463;-50
2022/03/27 05:11:46;;;;;;;71.88;26.40;;;;;;;3.98;89.90;100669.78;4931791;28;20112;-52
2022/03/27 05:14:14;;;;;;;53.80;24.42;;;;;;;3.80;89.05;100672.56;4947842;28;20064;-51
2022/03/27 05:16:39;;;;;;;51.25;24.23;;;;;;;3.67;88.19;100673.03;4931132;28;20087;-52
2022/03/27 05:19:05;;;;;;;49.30;24.30;;;;;;;3.54;88.81;100669.19;4939261;29;20124;-53
2022/03/27 05:21:31;;;;;;;67.63;25.35;;;;;;;3.52;89.38;100673.81;4932187;28;20502;-51
2022/03/27 05:23:57;;;;;;;71.50;26.30;;;;;;;3.43;89.18;100671.13;4940935;29;20411;-52
2022/03/27 05:26:22;;;;;;;55.88;25.60;;;;;;;3.41;89.83;100674.94;4934763;28;20059;-50
2022/03/27 05:28:47;;;;;;;52.60;24.35;;;;;;;3.54;90.24;100677.97;4932331;29;20024;-50
2022/03/27 05:31:13;;;;;;;66.65;25.33;;;;;;;3.55;89.42;100676.97;4942935;28;20031;-50
2022/03/27 05:33:39;;;;;;;56.92;25.42;;;;;;;3.64;89.46;100683.97;4938375;28;20386;-51
2022/03/27 05:36:08;;;;;;;60.58;26.83;;;;;;;3.68;89.10;100676.50;4951141;28;20374;-52
2022/03/27 05:38:34;;;;;;;56.63;26.27;;;;;;;3.62;89.39;100685.97;4962305;28;20034;-52
2022/03/27 05:41:00;;;;;;;66.63;26.85;;;;;;;3.77;89.78;100690.59;4967268;28;20471;-52
2022/03/27 05:43:25;;;;;;;59.58;26.92;;;;;;;3.96;89.75;100682.38;4968419;28;20113;-52
2022/03/27 05:45:51;;;;;;;56.17;25.70;;;;;;;4.00;88.45;100690.84;4967591;28;20123;-52
2022/03/27 05:48:16;;;;;;;60.38;28.90;;;;;;;4.17;90.89;100691.66;4967527;28;20031;-52
2022/03/27 05:50:42;;;;;;;54.72;27.60;;;;;;;3.78;88.96;100687.81;4967384;28;20035;-51
2022/03/27 05:53:07;;;;;;;61.80;27.35;;;;;;;4.22;89.29;100702.63;4958194;28;20600;-52
2022/03/27 05:55:33;;;;;;;61.15;27.33;;;;;;;4.97;84.50;100694.44;4979087;28;20047;-51
2022/03/27 05:57:59;;;;;;;52.53;26.20;;;;;;;5.92;82.21;100704.16;4959704;28;20522;-50
2022/03/27 06:00:26;;;;;;;55.63;25.58;;;;;;;7.60;76.61;100699.41;4958267;28;20134;-50
2022/03/27 06:02:52;;;;;;;59.38;30.75;;;;;;;8.29;69.88;100700.75;4966684;28;20047;-53
2022/03/27 06:05:22;;;;;;;53.22;28.30;;;;;;;9.74;65.26;100704.59;4967957;28;20044;-52
2022/03/27 06:07:49;;;;;;;53.25;28.63;;;;;;;10.08;61.06;100712.53;4963841;28;20023;-51
2022/03/27 06:10:16;;;;;;;58.83;30.40;;;;;;;9.43;64.49;100711.25;4963161;28;20073;-52
2022/03/27 06:12:43;;;;;;;48.13;24.85;;;;;;;10.39;64.16;100718.38;4960747;28;20027;-52
2022/03/27 06:15:09;;;;;;;58.22;30.90;;;;;;;10.14;63.75;100719.72;4962104;28;20093;-53
2022/03/27 06:17:42;;;;;;;62.50;32.17;;;;;;;11.05;59.27;100712.94;4969019;28;20529;-52
2022/03/27 06:20:09;;;;;;;60.95;31.00;;;;;;;11.39;56.82;100714.53;4951746;28;20039;-50
2022/03/27 06:22:34;;;;;;;67.38;32.28;;;;;;;12.18;54.74;100719.75;4963156;28;20468;-52
2022/03/27 06:25:00;;;;;;;61.92;29.27;;;;;;;12.03;54.13;100726.28;4966900;28;20031;-52
2022/03/27 06:27:25;;;;;;;53.97;27.52;;;;;;;12.77;51.09;100717.66;4966233;28;20115;-50
2022/03/27 06:29:50;;;;;;;63.33;29.27;;;;;;;12.97;50.99;100726.38;4967354;28;20038;-50
2022/03/27 06:32:16;;;;;;;63.55;30.17;;;;;;;14.14;48.52;100730.84;4960310;28;20047;-53
2022/03/27 06:34:41;;;;;;;53.78;29.63;;;;;;;13.33;50.70;100722.94;4956702;28;20039;-50
2022/03/27 06:37:08;;;;;;;59.03;29.08;;;;;;;14.56;47.03;100730.88;4967351;28;20051;-51
2022/03/27 06:39:33;;;;;;;55.45;29.30;;;;;;;14.94;45.92;100730.44;4963383;28;20093;-51
2022/03/27 06:41:59;;;;;;;53.08;28.80;;;;;;;13.97;47.73;100731.47;4963600;28;20129;-52
2022/03/27 06:44:24;;;;;;;57.85;28.95;;;;;;;13.13;50.57;100725.81;4959530;28;20027;-50
2022/03/27 06:46:49;;;;;;;58.35;29.05;;;;;;;14.75;47.27;100731.59;4966648;28;20054;-53
2022/03/27 06:49:15;;;;;;;53.10;28.27;;;;;;;13.96;48.84;100729.03;4965528;28;20068;-51
2022/03/27 06:51:40;;;;;;;50.10;26.70;;;;;;;13.92;49.74;100727.81;4956094;28;20042;-54
2022/03/27 06:54:06;;;;;;;50.88;27.45;;;;;;;13.89;50.85;100723.72;4965155;28;20031;-52
2022/03/27 06:56:32;;;;;;;48.55;26.52;;;;;;;14.07;49.30;100722.03;4967191;28;20552;-53
2022/03/27 06:58:58;;;;;;;47.35;25.88;;;;;;;14.79;47.29;100725.50;4961681;28;20078;-53
2022/03/27 07:04:07;;;;;;;48.50;24.75;;;;;;;14.73;46.93;100721.03;4958003;28;20109;-51
2022/03/27 07:06:32;;;;;;;51.35;25.15;;;;;;;14.49;47.45;100722.84;4960511;28;20050;-50
2022/03/27 07:08:59;;;;;;;50.00;27.92;;;;;;;15.07;46.07;100718.56;4965629;28;20038;-53
2022/03/27 07:11:25;;;;;;;58.08;29.20;;;;;;;15.67;44.84;100722.81;4964871;28;20037;-53
2022/03/27 07:13:50;;;;;;;59.22;30.30;;;;;;;14.80;46.90;100719.06;4966709;28;20027;-52
2022/03/27 07:16:16;;;;;;;52.00;27.88;;;;;;;14.55;47.88;100718.41;4965772;28;20046;-52
2022/03/27 07:18:41;;;;;;;60.92;33.00;;;;;;;14.79;47.67;100720.09;4968308;28;20097;-53
2022/03/27 07:21:08;;;;;;;54.13;29.38;;;;;;;15.85;45.23;100714.56;4970589;28;20046;-53
2022/03/27 07:23:33;;;;;;;62.90;30.50;;;;;;;15.43;45.83;100711.25;4961220;28;20042;-53
2022/03/27 07:25:59;;;;;;;70.93;35.40;;;;;;;14.75;47.70;100720.78;4963671;28;20448;-51
2022/03/27 07:28:28;;;;;;;114.85;49.58;;;;;;;14.19;49.10;100717.50;4965051;28;20030;-52
2022/03/27 07:30:54;;;;;;;71.95;34.50;;;;;;;14.55;49.22;100719.25;4959514;28;20041;-50
2022/03/27 07:33:21;;;;;;;56.67;29.90;;;;;;;14.52;49.22;100722.38;4966115;28;20400;-53
2022/03/27 07:35:46;;;;;;;63.58;29.77;;;;;;;14.31;50.16;100715.66;4962229;28;20783;-53
2022/03/27 07:38:12;;;;;;;51.13;28.60;;;;;;;14.41;50.33;100712.41;4970505;28;20041;-52
2022/03/27 07:40:38;;;;;;;58.63;28.55;;;;;;;15.32;47.81;100716.44;4966681;28;20034;-51
2022/03/27 07:43:03;;;;;;;67.28;37.45;;;;;;;14.76;49.01;100717.88;4961740;28;20038;-51
2022/03/27 07:45:29;;;;;;;61.28;36.17;;;;;;;15.70;47.81;100728.59;4961992;28;20062;-51
2022/03/27 07:47:55;;;;;;;58.72;32.40;;;;;;;15.81;47.62;100735.03;4966132;28;20350;-54
2022/03/27 07:50:22;;;;;;;55.90;29.70;;;;;;;16.02;47.18;100719.19;4957582;28;20050;-51
2022/03/27 07:52:47;;;;;;;49.50;28.92;;;;;;;15.61;47.53;100724.59;4968239;28;20109;-54
2022/03/27 07:55:14;;;;;;;47.92;27.00;;;;;;;15.50;48.20;100728.13;4969610;28;20477;-50
2022/03/27 07:57:39;;;;;;;53.58;28.55;;;;;;;15.30;49.62;100723.97;4957038;28;20028;-53
2022/03/27 08:00:08;;;;;;;52.83;29.70;;;;;;;15.12;50.52;100732.19;4968420;28;20065;-52
2022/03/27 08:02:34;;;;;;;47.13;27.63;;;;;;;15.52;49.06;100731.41;4969317;28;20062;-52
2022/03/27 08:04:59;;;;;;;46.63;26.85;;;;;;;15.67;49.96;100729.03;4960193;28;20083;-53
2022/03/27 08:07:24;;;;;;;50.85;27.67;;;;;;;15.27;51.30;100727.09;4965397;28;20138;-51
2022/03/27 08:09:50;;;;;;;46.58;27.10;;;;;;;15.64;50.57;100718.69;4969834;28;20022;-53
2022/03/27 08:12:17;;;;;;;49.55;26.15;;;;;;;15.47;51.58;100724.03;4966277;28;20046;-53
2022/03/27 08:14:43;;;;;;;46.38;26.98;;;;;;;15.88;50.30;100730.28;4968118;28;20050;-54
2022/03/27 08:17:09;;;;;;;51.08;27.60;;;;;;;15.79;50.93;100734.44;4967362;28;20051;-52
2022/03/27 08:19:35;;;;;;;50.05;27.10;;;;;;;15.99;49.98;100720.47;4966810;28;20026;-50
2022/03/27 08:22:01;;;;;;;48.20;27.08;;;;;;;16.29;49.38;100724.81;4968765;28;20067;-51
2022/03/27 08:24:27;;;;;;;50.92;28.85;;;;;;;15.21;50.58;100729.94;4970058;28;20038;-53
2022/03/27 08:26:55;;;;;;;51.80;26.90;;;;;;;15.90;50.19;100732.75;4970080;28;20393;-53
2022/03/27 08:29:24;;;;;;;49.03;26.95;;;;;;;16.96;48.16;100727.56;4967914;28;20041;-54
2022/03/27 08:31:51;;;;;;;48.63;28.33;;;;;;;16.92;48.27;100722.88;4969430;28;20161;-51
2022/03/27 08:34:18;;;;;;;45.03;27.80;;;;;;;16.51;48.60;100728.44;4969435;28;20384;-54
2022/03/27 08:36:44;;;;;;;48.47;27.50;;;;;;;17.17;47.67;100730.56;4958347;28;20039;-51
2022/03/27 08:39:10;;;;;;;47.20;26.92;;;;;;;17.11;47.46;100726.16;4961408;28;20031;-53
2022/03/27 08:41:36;;;;;;;50.33;29.88;;;;;;;16.15;48.58;100722.41;4962013;28;20043;-51
2022/03/27 08:44:01;;;;;;;48.35;28.20;;;;;;;16.99;47.14;100724.34;4959359;28;20050;-52
2022/03/27 08:46:28;;;;;;;48.45;28.63;;;;;;;17.46;46.75;100731.22;4962115;28;20077;-52
2022/03/27 08:48:53;;;;;;;52.78;28.20;;;;;;;16.12;49.53;100720.19;4968979;28;20027;-53
2022/03/27 08:51:39;;;;;;;50.17;27.55;;;;;;;17.08;47.34;100721.22;4966686;28;20043;-53
2022/03/27 08:54:07;;;;;;;49.33;27.85;;;;;;;17.27;47.37;100730.69;4959298;28;20069;-53
2022/03/27 08:56:33;;;;;;;48.80;28.00;;;;;;;17.10;47.18;100724.50;4952782;28;20047;-52
2022/03/27 08:59:09;;;;;;;48.92;28.90;;;;;;;17.64;45.63;100721.94;4965578;28;20034;-52
2022/03/27 09:01:35;;;;;;;49.17;26.95;;;;;;;16.48;48.80;100720.81;4966799;28;20047;-53
2022/03/27 09:04:00;;;;;;;50.47;26.85;;;;;;;17.19;46.46;100723.00;4963224;28;20041;-53
2022/03/27 09:06:25;;;;;;;44.72;25.33;;;;;;;17.85;45.88;100728.47;4967454;28;20054;-52
2022/03/27 09:08:52;;;;;;;52.17;26.67;;;;;;;17.46;46.53;100726.63;4962273;28;20029;-53
2022/03/27 09:11:19;;;;;;;45.00;25.55;;;;;;;17.25;47.53;100722.00;4963616;28;20051;-52
2022/03/27 09:13:46;;;;;;;43.30;23.70;;;;;;;18.03;47.03;100728.13;4969320;28;20034;-52
2022/03/27 09:16:12;;;;;;;42.05;24.73;;;;;;;18.41;45.74;100722.78;4966742;28;20377;-53
2022/03/27 09:18:49;;;;;;;46.05;25.20;;;;;;;18.55;45.01;100729.44;4963962;28;20035;-53
2022/03/27 09:21:15;;;;;;;46.47;24.98;;;;;;;18.37;45.64;100727.94;4959118;28;20493;-54
2022/03/27 09:23:41;;;;;;;44.08;25.58;;;;;;;17.34;47.99;100736.75;4969228;28;20065;-52
2022/03/27 09:26:09;;;;;;;43.97;25.63;;;;;;;17.94;46.50;100723.41;4956124;28;20145;-53
2022/03/27 09:28:38;;;;;;;44.42;24.65;;;;;;;17.81;46.68;100730.06;4956893;28;20350;-50
2022/03/27 09:31:23;;;;;;;45.38;25.17;;;;;;;18.13;46.77;100722.00;4959893;28;20047;-52
2022/03/27 09:34:00;;;;;;;48.85;24.58;;;;;;;17.85;47.01;100723.88;4958048;28;20023;-53
2022/03/27 09:36:33;;;;;;;44.47;24.33;;;;;;;18.18;47.31;100722.03;4947723;28;20041;-51
2022/03/27 09:39:07;;;;;;;42.58;24.48;;;;;;;18.20;47.33;100716.38;4965034;28;20078;-50
2022/03/27 09:41:40;;;;;;;41.47;22.85;;;;;;;17.62;48.48;100719.50;4961924;28;20170;-52
2022/03/27 09:44:10;;;;;;;40.97;23.40;;;;;;;19.00;46.28;100720.00;4961921;28;20035;-53
2022/03/27 09:47:10;;;;;;;44.30;24.08;;;;;;;18.15;46.75;100713.59;4956804;28;20039;-54
2022/03/27 09:49:35;;;;;;;41.83;22.33;;;;;;;18.60;46.78;100709.66;4960706;28;20069;-53
2022/03/27 09:52:12;;;;;;;42.28;23.67;;;;;;;18.24;47.19;100712.84;4966981;28;20485;-53
2022/03/27 09:54:55;;;;;;;43.92;23.55;;;;;;;18.35;47.70;100704.84;4965388;28;20571;-53
2022/03/27 09:57:24;;;;;;;41.30;22.23;;;;;;;18.85;46.97;100714.47;4961717;28;20059;-54
2022/03/27 09:59:50;;;;;;;38.50;23.40;;;;;;;19.24;46.63;100703.28;4956430;28;20023;-50
2022/03/27 10:02:22;;;;;;;41.53;23.33;;;;;;;19.38;45.95;100701.72;4960595;28;20042;-52
2022/03/27 10:05:04;;;;;;;42.22;23.63;;;;;;;19.69;44.81;100705.41;4963215;28;20117;-51
2022/03/27 10:07:36;;;;;;;42.13;22.23;;;;;;;19.72;44.77;100707.63;4947033;28;20059;-52
2022/03/27 10:10:02;;;;;;;44.67;22.42;;;;;;;20.10;43.91;100701.97;4947165;28;20119;-51
2022/03/27 10:12:30;;;;;;;43.75;25.00;;;;;;;19.67;45.37;100696.72;4962072;28;20129;-53
2022/03/27 10:15:00;;;;;;;42.65;24.10;;;;;;;18.68;45.64;100693.69;4959827;28;20178;-52
2022/03/27 10:17:27;;;;;;;42.33;24.10;;;;;;;18.57;46.43;100694.69;4942025;28;20074;-53
2022/03/27 10:19:54;;;;;;;37.05;22.35;;;;;;;19.85;44.52;100689.97;4946467;29;20043;-51
2022/03/27 10:22:20;;;;;;;46.00;24.17;;;;;;;18.52;46.25;100686.50;4947828;28;20205;-52
2022/03/27 10:24:46;;;;;;;46.42;25.58;;;;;;;18.03;47.48;100686.63;4938298;29;20487;-53
2022/03/27 10:27:12;;;;;;;50.28;24.67;;;;;;;17.93;47.63;100683.81;4933959;28;20071;-52
2022/03/27 10:29:37;;;;;;;46.35;23.92;;;;;;;18.63;46.47;100682.78;4944822;28;20074;-50
2022/03/27 10:32:04;;;;;;;41.63;21.98;;;;;;;19.15;45.98;100675.81;4946837;28;20044;-52
2022/03/27 10:34:31;;;;;;;41.30;23.10;;;;;;;20.01;44.13;100661.66;4947366;29;20039;-55
2022/03/27 10:37:12;;;;;;;49.45;23.20;;;;;;;19.02;45.58;100668.09;4941203;28;20090;-52
2022/03/27 10:39:50;;;;;;;35.97;22.17;;;;;;;19.04;46.03;100666.75;4948629;28;20062;-51
2022/03/27 10:43:00;;;;;;;38.40;22.77;;;;;;;20.38;43.19;100652.44;4938029;28;20040;-52
2022/03/27 10:45:26;;;;;;;37.33;21.73;;;;;;;19.78;45.17;100656.75;4947221;28;20066;-53
2022/03/27 10:48:14;;;;;;;40.85;21.58;;;;;;;19.05;45.66;100651.31;4940006;29;20036;-52
2022/03/27 10:50:50;;;;;;;37.00;21.55;;;;;;;18.50;46.79;100647.94;4943328;28;20048;-52
2022/03/27 10:53:17;;;;;;;35.25;19.63;;;;;;;19.30;43.34;100642.44;4946853;28;20031;-53
2022/03/27 10:55:44;;;;;;;35.83;21.02;;;;;;;19.77;44.22;100641.53;4946264;28;20378;-54
2022/03/27 10:58:27;;;;;;;38.55;21.15;;;;;;;19.33;45.13;100636.47;4945709;28;20036;-53
2022/03/27 11:00:52;;;;;;;40.88;21.42;;;;;;;20.11;44.44;100633.66;4953501;28;20074;-52
2022/03/27 11:03:47;;;;;;;42.42;21.23;;;;;;;20.66;42.91;100636.63;4968795;28;20027;-52
2022/03/27 11:06:26;;;;;;;33.70;20.20;;;;;;;20.50;43.10;100629.56;4964001;28;20051;-51
2022/03/27 11:08:52;;;;;;;32.93;18.90;;;;;;;20.20;42.67;100623.06;4972012;28;20062;-51
2022/03/27 11:11:36;;;;;;;40.63;20.20;;;;;;;19.00;45.68;100624.91;4971489;28;20301;-53
2022/03/27 11:14:20;;;;;;;35.60;19.30;;;;;;;19.73;43.85;100615.94;4968055;28;20046;-53
2022/03/27 11:17:07;;;;;;;36.00;18.88;;;;;;;19.09;44.32;100609.72;4966491;28;20068;-53
2022/03/27 11:19:42;;;;;;;43.72;20.52;;;;;;;19.49;43.96;100613.66;4964105;28;20088;-49